sensor_id;sensor_type;location;lat;lon;timestamp;pressure;altitude;pressure_sealevel;temperature;humidity
25560;BME280;13450;49.374;8.584;2022-08-25T00:01:49;100541.59;;;23.62;49.96
25560;BME280;13450;49.374;8.584;2022-08-25T00:04:16;100543.25;;;23.58;50.77
25560;BME280;13450;49.374;8.584;2022-08-25T00:06:42;100535.88;;;23.54;51.22
25560;BME280;13450;49.374;8.584;2022-08-25T00:09:16;100538.88;;;23.52;51.58
25560;BME280;13450;49.374;8.584;2022-08-25T00:11:43;100537.78;;;23.48;55.14
25560;BME280;13450;49.374;8.584;2022-08-25T00:14:12;100542.66;;;23.46;53.74
25560;BME280;13450;49.374;8.584;2022-08-25T00:16:38;100535.56;;;23.40;52.74
25560;BME280;13450;49.374;8.584;2022-08-25T00:19:14;100540.47;;;23.37;51.88
25560;BME280;13450;49.374;8.584;2022-08-25T00:21:41;100530.09;;;23.34;53.16
25560;BME280;13450;49.374;8.584;2022-08-25T00:24:08;100535.25;;;23.31;53.85
25560;BME280;13450;49.374;8.584;2022-08-25T00:26:38;100533.88;;;23.28;53.53
25560;BME280;13450;49.374;8.584;2022-08-25T00:29:03;100539.88;;;23.30;52.26
25560;BME280;13450;49.374;8.584;2022-08-25T00:31:29;100531.44;;;23.32;53.48
25560;BME280;13450;49.374;8.584;2022-08-25T00:33:57;100530.59;;;23.31;52.39
25560;BME280;13450;49.374;8.584;2022-08-25T00:36:23;100529.78;;;23.31;53.07
25560;BME280;13450;49.374;8.584;2022-08-25T00:38:48;100533.91;;;23.33;53.36
25560;BME280;13450;49.374;8.584;2022-08-25T00:41:20;100525.72;;;23.33;53.80
25560;BME280;13450;49.374;8.584;2022-08-25T00:46:15;100528.47;;;23.33;56.47
25560;BME280;13450;49.374;8.584;2022-08-25T00:48:44;100534.72;;;23.34;53.26
25560;BME280;13450;49.374;8.584;2022-08-25T00:51:13;100528.47;;;23.33;53.77
25560;BME280;13450;49.374;8.584;2022-08-25T00:53:43;100529.50;;;23.32;54.26
25560;BME280;13450;49.374;8.584;2022-08-25T00:56:12;100538.53;;;23.33;54.70
25560;BME280;13450;49.374;8.584;2022-08-25T00:58:39;100538.81;;;23.36;57.09
25560;BME280;13450;49.374;8.584;2022-08-25T01:01:07;100529.00;;;23.35;53.35
25560;BME280;13450;49.374;8.584;2022-08-25T01:03:35;100537.69;;;23.32;54.29
25560;BME280;13450;49.374;8.584;2022-08-25T01:06:02;100533.91;;;23.33;54.86
25560;BME280;13450;49.374;8.584;2022-08-25T01:08:29;100529.25;;;23.34;56.11
25560;BME280;13450;49.374;8.584;2022-08-25T01:10:57;100533.06;;;23.33;54.67
25560;BME280;13450;49.374;8.584;2022-08-25T01:13:28;100530.59;;;23.31;55.38
25560;BME280;13450;49.374;8.584;2022-08-25T01:15:56;100528.13;;;23.30;56.37
25560;BME280;13450;49.374;8.584;2022-08-25T01:18:22;100524.59;;;23.29;56.49
25560;BME280;13450;49.374;8.584;2022-08-25T01:20:52;100529.50;;;23.27;54.75
25560;BME280;13450;49.374;8.584;2022-08-25T01:23:18;100526.47;;;23.23;56.47
25560;BME280;13450;49.374;8.584;2022-08-25T01:28:20;100523.47;;;23.15;53.93
25560;BME280;13450;49.374;8.584;2022-08-25T01:30:46;100536.81;;;23.11;54.34
25560;BME280;13450;49.374;8.584;2022-08-25T01:33:12;100529.44;;;23.06;55.22
25560;BME280;13450;49.374;8.584;2022-08-25T01:35:55;100533.78;;;23.02;58.60
25560;BME280;13450;49.374;8.584;2022-08-25T01:38:23;100537.03;;;22.99;56.14
25560;BME280;13450;49.374;8.584;2022-08-25T01:40:48;100531.84;;;22.97;57.62
25560;BME280;13450;49.374;8.584;2022-08-25T01:45:42;100534.81;;;22.91;57.75
25560;BME280;13450;49.374;8.584;2022-08-25T01:48:11;100522.78;;;22.86;57.67
25560;BME280;13450;49.374;8.584;2022-08-25T01:50:37;100530.97;;;22.81;57.12
25560;BME280;13450;49.374;8.584;2022-08-25T01:53:06;100530.94;;;22.76;57.57
25560;BME280;13450;49.374;8.584;2022-08-25T01:55:32;100529.28;;;22.70;58.74
25560;BME280;13450;49.374;8.584;2022-08-25T01:58:20;100530.31;;;22.64;57.69
25560;BME280;13450;49.374;8.584;2022-08-25T02:00:50;100537.34;;;22.54;59.59
25560;BME280;13450;49.374;8.584;2022-08-25T02:03:18;100540.56;;;22.51;59.95
25560;BME280;13450;49.374;8.584;2022-08-25T02:05:44;100539.50;;;22.47;60.96
25560;BME280;13450;49.374;8.584;2022-08-25T02:08:09;100538.38;;;22.43;61.68
25560;BME280;13450;49.374;8.584;2022-08-25T02:10:36;100545.16;;;22.40;60.70
25560;BME280;13450;49.374;8.584;2022-08-25T02:13:01;100544.84;;;22.37;60.27
25560;BME280;13450;49.374;8.584;2022-08-25T02:15:29;100538.53;;;22.31;58.82
25560;BME280;13450;49.374;8.584;2022-08-25T02:17:54;100540.97;;;22.27;59.83
25560;BME280;13450;49.374;8.584;2022-08-25T02:20:20;100532.50;;;22.24;64.31
25560;BME280;13450;49.374;8.584;2022-08-25T02:22:48;100534.13;;;22.19;61.46
25560;BME280;13450;49.374;8.584;2022-08-25T02:25:14;100529.75;;;22.18;64.15
25560;BME280;13450;49.374;8.584;2022-08-25T02:27:40;100529.19;;;22.16;59.92
25560;BME280;13450;49.374;8.584;2022-08-25T02:30:05;100526.16;;;22.13;59.79
25560;BME280;13450;49.374;8.584;2022-08-25T02:32:31;100528.28;;;22.05;56.21
25560;BME280;13450;49.374;8.584;2022-08-25T02:34:56;100527.47;;;22.05;62.14
25560;BME280;13450;49.374;8.584;2022-08-25T02:37:21;100519.81;;;22.02;58.04
25560;BME280;13450;49.374;8.584;2022-08-25T02:39:47;100526.03;;;21.97;56.12
25560;BME280;13450;49.374;8.584;2022-08-25T02:42:12;100519.78;;;21.97;59.92
25560;BME280;13450;49.374;8.584;2022-08-25T02:44:38;100520.03;;;21.95;58.19
25560;BME280;13450;49.374;8.584;2022-08-25T02:47:04;100518.41;;;21.94;57.32
25560;BME280;13450;49.374;8.584;2022-08-25T02:49:29;100516.19;;;21.91;60.72
25560;BME280;13450;49.374;8.584;2022-08-25T02:51:56;100515.34;;;21.90;60.19
25560;BME280;13450;49.374;8.584;2022-08-25T02:54:29;100513.97;;;21.88;57.09
25560;BME280;13450;49.374;8.584;2022-08-25T02:56:54;100516.41;;;21.84;58.19
25560;BME280;13450;49.374;8.584;2022-08-25T02:59:19;100513.41;;;21.86;60.66
25560;BME280;13450;49.374;8.584;2022-08-25T03:01:45;100507.97;;;21.86;60.29
25560;BME280;13450;49.374;8.584;2022-08-25T03:04:11;100512.84;;;21.84;61.25
25560;BME280;13450;49.374;8.584;2022-08-25T03:06:41;100505.75;;;21.82;58.15
25560;BME280;13450;49.374;8.584;2022-08-25T03:09:06;100508.72;;;21.81;60.76
25560;BME280;13450;49.374;8.584;2022-08-25T03:11:32;100512.81;;;21.78;62.45
25560;BME280;13450;49.374;8.584;2022-08-25T03:13:57;100505.72;;;21.77;60.89
25560;BME280;13450;49.374;8.584;2022-08-25T03:16:23;100504.09;;;21.76;60.81
25560;BME280;13450;49.374;8.584;2022-08-25T03:18:49;100507.91;;;21.75;64.67
25560;BME280;13450;49.374;8.584;2022-08-25T03:21:19;100506.56;;;21.78;63.83
25560;BME280;13450;49.374;8.584;2022-08-25T03:23:49;100506.56;;;21.78;65.04
25560;BME280;13450;49.374;8.584;2022-08-25T03:26:14;100501.91;;;21.78;64.29
25560;BME280;13450;49.374;8.584;2022-08-25T03:29:04;100511.16;;;21.77;62.98
25560;BME280;13450;49.374;8.584;2022-08-25T03:31:33;100508.69;;;21.76;63.51
25560;BME280;13450;49.374;8.584;2022-08-25T03:33:59;100512.50;;;21.75;60.47
25560;BME280;13450;49.374;8.584;2022-08-25T03:36:25;100512.75;;;21.73;64.79
25560;BME280;13450;49.374;8.584;2022-08-25T03:38:52;100515.97;;;21.70;60.82
25560;BME280;13450;49.374;8.584;2022-08-25T03:41:23;100506.41;;;21.67;66.13
25560;BME280;13450;49.374;8.584;2022-08-25T03:43:50;100506.13;;;21.64;65.83
25560;BME280;13450;49.374;8.584;2022-08-25T03:46:28;100513.19;;;21.65;65.60
25560;BME280;13450;49.374;8.584;2022-08-25T03:48:54;100501.19;;;21.61;67.29
25560;BME280;13450;49.374;8.584;2022-08-25T03:51:21;100494.00;;;21.49;66.26
25560;BME280;13450;49.374;8.584;2022-08-25T03:53:48;100499.16;;;21.46;72.32
25560;BME280;13450;49.374;8.584;2022-08-25T03:56:13;100486.25;;;21.36;66.92
25560;BME280;13450;49.374;8.584;2022-08-25T03:58:38;100483.47;;;21.30;70.56
25560;BME280;13450;49.374;8.584;2022-08-25T04:01:04;100486.16;;;21.25;63.61
25560;BME280;13450;49.374;8.584;2022-08-25T04:03:29;100491.22;;;21.16;65.72
25560;BME280;13450;49.374;8.584;2022-08-25T04:05:54;100489.28;;;21.12;70.51
25560;BME280;13450;49.374;8.584;2022-08-25T04:08:24;100494.38;;;21.08;66.59
25560;BME280;13450;49.374;8.584;2022-08-25T04:10:50;100502.78;;;21.07;64.90
25560;BME280;13450;49.374;8.584;2022-08-25T04:13:19;100495.72;;;21.06;64.08
25560;BME280;13450;49.374;8.584;2022-08-25T04:15:44;100506.59;;;21.06;62.96
25560;BME280;13450;49.374;8.584;2022-08-25T04:18:10;100499.53;;;21.04;62.27
25560;BME280;13450;49.374;8.584;2022-08-25T04:20:40;100507.44;;;21.06;68.95
25560;BME280;13450;49.374;8.584;2022-08-25T04:23:07;100504.13;;;21.04;63.69
25560;BME280;13450;49.374;8.584;2022-08-25T04:25:39;100509.00;;;21.02;60.70
25560;BME280;13450;49.374;8.584;2022-08-25T04:28:09;100507.94;;;21.03;67.95
25560;BME280;13450;49.374;8.584;2022-08-25T04:30:34;100507.38;;;21.01;66.22
25560;BME280;13450;49.374;8.584;2022-08-25T04:33:00;100510.28;;;20.94;70.30
25560;BME280;13450;49.374;8.584;2022-08-25T04:35:25;100505.59;;;20.89;74.51
25560;BME280;13450;49.374;8.584;2022-08-25T04:37:50;100517.41;;;20.78;71.87
25560;BME280;13450;49.374;8.584;2022-08-25T04:40:18;100522.19;;;20.71;73.20
25560;BME280;13450;49.374;8.584;2022-08-25T04:42:44;100517.41;;;20.61;68.16
25560;BME280;13450;49.374;8.584;2022-08-25T04:45:09;100521.72;;;20.57;69.26
25560;BME280;13450;49.374;8.584;2022-08-25T04:47:36;100516.22;;;20.51;69.35
25560;BME280;13450;49.374;8.584;2022-08-25T04:50:03;100511.38;;;20.36;78.56
25560;BME280;13450;49.374;8.584;2022-08-25T04:52:28;100512.06;;;20.27;80.90
25560;BME280;13450;49.374;8.584;2022-08-25T04:54:54;100509.44;;;20.15;76.84
25560;BME280;13450;49.374;8.584;2022-08-25T04:57:19;100511.25;;;20.09;85.10
25560;BME280;13450;49.374;8.584;2022-08-25T04:59:47;100513.88;;;20.04;80.58
25560;BME280;13450;49.374;8.584;2022-08-25T05:02:12;100510.56;;;20.02;84.38
25560;BME280;13450;49.374;8.584;2022-08-25T05:04:37;100511.50;;;20.07;85.92
25560;BME280;13450;49.374;8.584;2022-08-25T05:07:03;100518.25;;;20.05;76.97
25560;BME280;13450;49.374;8.584;2022-08-25T05:09:29;100517.75;;;20.08;83.91
25560;BME280;13450;49.374;8.584;2022-08-25T05:11:56;100511.25;;;20.09;82.21
25560;BME280;13450;49.374;8.584;2022-08-25T05:14:22;100504.81;;;20.15;80.05
25560;BME280;13450;49.374;8.584;2022-08-25T05:16:48;100506.56;;;20.21;76.83
25560;BME280;13450;49.374;8.584;2022-08-25T05:19:15;100504.47;;;20.29;83.86
25560;BME280;13450;49.374;8.584;2022-08-25T05:21:41;100504.47;;;20.29;78.61
25560;BME280;13450;49.374;8.584;2022-08-25T05:24:06;100502.66;;;20.34;85.87
25560;BME280;13450;49.374;8.584;2022-08-25T05:26:33;100502.91;;;20.33;78.90
25560;BME280;13450;49.374;8.584;2022-08-25T05:29:00;100494.25;;;20.36;82.06
25560;BME280;13450;49.374;8.584;2022-08-25T05:31:27;100498.69;;;20.42;85.01
25560;BME280;13450;49.374;8.584;2022-08-25T05:33:56;100489.47;;;20.43;82.46
25560;BME280;13450;49.374;8.584;2022-08-25T05:36:23;100496.56;;;20.44;75.78
25560;BME280;13450;49.374;8.584;2022-08-25T05:38:49;100496.38;;;20.51;80.78
25560;BME280;13450;49.374;8.584;2022-08-25T05:41:25;100501.06;;;20.56;79.51
25560;BME280;13450;49.374;8.584;2022-08-25T05:43:50;100496.25;;;20.63;77.00
25560;BME280;13450;49.374;8.584;2022-08-25T05:46:17;100497.47;;;20.72;80.12
25560;BME280;13450;49.374;8.584;2022-08-25T05:48:43;100489.88;;;20.74;77.46
25560;BME280;13450;49.374;8.584;2022-08-25T05:51:09;100495.47;;;20.85;78.67
25560;BME280;13450;49.374;8.584;2022-08-25T05:53:37;100499.66;;;20.93;78.82
25560;BME280;13450;49.374;8.584;2022-08-25T05:56:03;100501.94;;;21.01;76.98
25560;BME280;13450;49.374;8.584;2022-08-25T05:58:31;100499.81;;;21.08;75.42
25560;BME280;13450;49.374;8.584;2022-08-25T06:00:57;100499.13;;;21.18;77.05
25560;BME280;13450;49.374;8.584;2022-08-25T06:03:47;100499.75;;;21.25;79.73
25560;BME280;13450;49.374;8.584;2022-08-25T06:06:14;100494.88;;;21.27;74.70
25560;BME280;13450;49.374;8.584;2022-08-25T06:08:41;100490.06;;;21.35;77.92
25560;BME280;13450;49.374;8.584;2022-08-25T06:11:10;100493.38;;;21.42;73.68
25560;BME280;13450;49.374;8.584;2022-08-25T06:13:38;100498.94;;;21.52;75.56
25560;BME280;13450;49.374;8.584;2022-08-25T06:16:03;100490.28;;;21.61;72.07
25560;BME280;13450;49.374;8.584;2022-08-25T06:18:29;100488.72;;;21.70;72.73
25560;BME280;13450;49.374;8.584;2022-08-25T06:20:54;100492.63;;;21.74;74.68
25560;BME280;13450;49.374;8.584;2022-08-25T06:23:19;100500.28;;;21.77;72.86
25560;BME280;13450;49.374;8.584;2022-08-25T06:25:49;100504.16;;;21.87;70.05
25560;BME280;13450;49.374;8.584;2022-08-25T06:28:15;100499.09;;;22.01;70.50
25560;BME280;13450;49.374;8.584;2022-08-25T06:30:43;100509.25;;;22.11;74.33
25560;BME280;13450;49.374;8.584;2022-08-25T06:33:08;100509.84;;;22.18;74.71
25560;BME280;13450;49.374;8.584;2022-08-25T06:35:33;100504.44;;;22.23;71.27
25560;BME280;13450;49.374;8.584;2022-08-25T06:37:59;100494.41;;;22.34;72.09
25560;BME280;13450;49.374;8.584;2022-08-25T06:40:26;100498.84;;;22.40;70.55
25560;BME280;13450;49.374;8.584;2022-08-25T06:42:52;100494.22;;;22.51;68.96
25560;BME280;13450;49.374;8.584;2022-08-25T06:45:17;100491.06;;;22.65;70.84
25560;BME280;13450;49.374;8.584;2022-08-25T06:47:42;100500.41;;;22.74;71.08
25560;BME280;13450;49.374;8.584;2022-08-25T06:50:11;100492.78;;;22.86;69.89
25560;BME280;13450;49.374;8.584;2022-08-25T06:52:36;100493.13;;;23.01;70.37
25560;BME280;13450;49.374;8.584;2022-08-25T06:55:05;100492.88;;;23.12;66.97
25560;BME280;13450;49.374;8.584;2022-08-25T06:57:31;100487.47;;;23.28;70.28
25560;BME280;13450;49.374;8.584;2022-08-25T06:59:59;100484.53;;;23.40;67.68
25560;BME280;13450;49.374;8.584;2022-08-25T07:02:25;100484.25;;;23.52;68.25
25560;BME280;13450;49.374;8.584;2022-08-25T07:04:50;100487.00;;;23.62;65.87
25560;BME280;13450;49.374;8.584;2022-08-25T07:07:20;100477.44;;;23.70;67.16
25560;BME280;13450;49.374;8.584;2022-08-25T07:09:45;100471.16;;;23.80;64.90
25560;BME280;13450;49.374;8.584;2022-08-25T07:12:10;100473.88;;;23.90;64.52
25560;BME280;13450;49.374;8.584;2022-08-25T07:14:36;100469.22;;;24.01;64.45
25560;BME280;13450;49.374;8.584;2022-08-25T07:17:04;100471.72;;;24.19;63.64
25560;BME280;13450;49.374;8.584;2022-08-25T07:19:29;100462.91;;;24.27;63.10
25560;BME280;13450;49.374;8.584;2022-08-25T07:21:54;100465.09;;;24.35;62.91
25560;BME280;13450;49.374;8.584;2022-08-25T07:24:21;100468.88;;;24.45;61.81
25560;BME280;13450;49.374;8.584;2022-08-25T07:26:47;100468.59;;;24.51;64.66
25560;BME280;13450;49.374;8.584;2022-08-25T07:29:24;100466.66;;;24.57;61.87
25560;BME280;13450;49.374;8.584;2022-08-25T07:31:52;100474.28;;;24.65;62.83
25560;BME280;13450;49.374;8.584;2022-08-25T07:34:17;100463.88;;;24.73;60.99
25560;BME280;13450;49.374;8.584;2022-08-25T07:37:04;100465.50;;;24.74;61.44
25560;BME280;13450;49.374;8.584;2022-08-25T07:39:30;100461.13;;;24.78;61.13
25560;BME280;13450;49.374;8.584;2022-08-25T07:42:00;100463.81;;;24.83;63.03
25560;BME280;13450;49.374;8.584;2022-08-25T07:44:26;100465.47;;;24.89;60.93
25560;BME280;13450;49.374;8.584;2022-08-25T07:46:52;100462.69;;;25.00;60.56
25560;BME280;13450;49.374;8.584;2022-08-25T07:49:19;100463.13;;;25.12;59.10
25560;BME280;13450;49.374;8.584;2022-08-25T07:51:45;100469.13;;;25.19;59.59
25560;BME280;13450;49.374;8.584;2022-08-25T07:54:11;100469.09;;;25.25;59.27
25560;BME280;13450;49.374;8.584;2022-08-25T07:56:36;100467.38;;;25.34;58.01
25560;BME280;13450;49.374;8.584;2022-08-25T07:59:02;100464.09;;;25.37;58.30
25560;BME280;13450;49.374;8.584;2022-08-25T08:01:29;100470.66;;;25.36;59.41
25560;BME280;13450;49.374;8.584;2022-08-25T08:03:55;100468.25;;;25.29;58.51
25560;BME280;13450;49.374;8.584;2022-08-25T08:06:22;100470.13;;;25.34;58.19
25560;BME280;13450;49.374;8.584;2022-08-25T08:08:50;100466.50;;;25.44;59.48
25560;BME280;13450;49.374;8.584;2022-08-25T08:13:41;100473.50;;;25.66;57.19
25560;BME280;13450;49.374;8.584;2022-08-25T08:16:11;100475.06;;;25.72;56.07
25560;BME280;13450;49.374;8.584;2022-08-25T08:18:37;100469.53;;;25.77;55.74
25560;BME280;13450;49.374;8.584;2022-08-25T08:21:03;100470.94;;;25.75;55.47
25560;BME280;13450;49.374;8.584;2022-08-25T08:23:28;100470.84;;;25.85;56.81
25560;BME280;13450;49.374;8.584;2022-08-25T08:25:54;100473.22;;;25.97;55.44
25560;BME280;13450;49.374;8.584;2022-08-25T08:28:20;100470.66;;;26.06;55.05
25560;BME280;13450;49.374;8.584;2022-08-25T08:30:46;100474.50;;;26.05;55.09
25560;BME280;13450;49.374;8.584;2022-08-25T08:33:12;100480.44;;;26.12;54.81
25560;BME280;13450;49.374;8.584;2022-08-25T08:35:38;100483.69;;;26.19;54.75
25560;BME280;13450;49.374;8.584;2022-08-25T08:38:04;100483.63;;;26.24;55.15
25560;BME280;13450;49.374;8.584;2022-08-25T08:40:29;100468.25;;;26.29;54.20
25560;BME280;13450;49.374;8.584;2022-08-25T08:43:06;100474.44;;;26.40;53.50
25560;BME280;13450;49.374;8.584;2022-08-25T08:45:42;100474.56;;;26.54;53.51
25560;BME280;13450;49.374;8.584;2022-08-25T08:51:03;100461.78;;;26.68;52.19
25560;BME280;13450;49.374;8.584;2022-08-25T08:53:50;100460.06;;;26.72;52.02
25560;BME280;13450;49.374;8.584;2022-08-25T08:56:26;100456.22;;;26.73;51.73
25560;BME280;13450;49.374;8.584;2022-08-25T08:58:57;100461.56;;;26.84;50.86
25560;BME280;13450;49.374;8.584;2022-08-25T09:01:33;100463.09;;;26.95;50.72
25560;BME280;13450;49.374;8.584;2022-08-25T09:04:08;100460.59;;;26.94;50.88
25560;BME280;13450;49.374;8.584;2022-08-25T09:06:45;100459.22;;;26.96;50.89
25560;BME280;13450;49.374;8.584;2022-08-25T09:09:30;100457.44;;;27.06;50.38
25560;BME280;13450;49.374;8.584;2022-08-25T09:15:21;100459.72;;;27.37;49.95
25560;BME280;13450;49.374;8.584;2022-08-25T09:20:33;100461.94;;;27.54;48.76
25560;BME280;13450;49.374;8.584;2022-08-25T09:26:06;100445.63;;;27.44;48.25
25560;BME280;13450;49.374;8.584;2022-08-25T09:28:47;100443.63;;;27.49;47.84
25560;BME280;13450;49.374;8.584;2022-08-25T09:33:52;100443.91;;;27.67;47.29
25560;BME280;13450;49.374;8.584;2022-08-25T09:36:19;100441.41;;;27.85;46.85
25560;BME280;13450;49.374;8.584;2022-08-25T09:38:44;100428.50;;;27.99;47.14
25560;BME280;13450;49.374;8.584;2022-08-25T09:41:15;100428.28;;;28.10;46.53
25560;BME280;13450;49.374;8.584;2022-08-25T09:43:42;100423.81;;;28.14;46.28
25560;BME280;13450;49.374;8.584;2022-08-25T09:46:10;100425.28;;;28.25;45.09
25560;BME280;13450;49.374;8.584;2022-08-25T09:51:33;100416.47;;;28.51;44.30
25560;BME280;13450;49.374;8.584;2022-08-25T09:56:58;100413.16;;;28.26;44.93
25560;BME280;13450;49.374;8.584;2022-08-25T09:59:28;100407.53;;;28.31;45.20
25560;BME280;13450;49.374;8.584;2022-08-25T10:01:57;100405.69;;;28.41;44.69
25560;BME280;13450;49.374;8.584;2022-08-25T10:04:28;100403.84;;;28.64;44.05
25560;BME280;13450;49.374;8.584;2022-08-25T10:06:57;100393.19;;;28.71;43.73
25560;BME280;13450;49.374;8.584;2022-08-25T10:09:30;100400.94;;;28.83;43.56
25560;BME280;13450;49.374;8.584;2022-08-25T10:12:00;100383.47;;;29.02;43.52
25560;BME280;13450;49.374;8.584;2022-08-25T10:14:33;100381.94;;;29.19;42.73
25560;BME280;13450;49.374;8.584;2022-08-25T10:19:50;100384.47;;;29.29;41.98
25560;BME280;13450;49.374;8.584;2022-08-25T10:22:24;100385.34;;;29.39;41.76
25560;BME280;13450;49.374;8.584;2022-08-25T10:24:58;100378.13;;;29.52;41.37
25560;BME280;13450;49.374;8.584;2022-08-25T10:27:45;100379.44;;;29.54;40.73
25560;BME280;13450;49.374;8.584;2022-08-25T10:30:32;100381.28;;;29.68;40.82
25560;BME280;13450;49.374;8.584;2022-08-25T10:35:47;100375.63;;;29.64;41.04
25560;BME280;13450;49.374;8.584;2022-08-25T10:38:34;100370.50;;;29.80;41.04
25560;BME280;13450;49.374;8.584;2022-08-25T10:43:41;100361.13;;;30.39;40.28
25560;BME280;13450;49.374;8.584;2022-08-25T10:46:29;100361.66;;;30.59;39.34
25560;BME280;13450;49.374;8.584;2022-08-25T10:49:12;100349.97;;;30.71;38.60
25560;BME280;13450;49.374;8.584;2022-08-25T10:52:00;100339.34;;;31.26;38.21
25560;BME280;13450;49.374;8.584;2022-08-25T10:54:47;100342.78;;;31.32;37.79
25560;BME280;13450;49.374;8.584;2022-08-25T10:57:35;100345.22;;;31.34;37.67
25560;BME280;13450;49.374;8.584;2022-08-25T11:00:08;100348.13;;;31.19;38.38
25560;BME280;13450;49.374;8.584;2022-08-25T11:05:44;100344.88;;;32.86;35.84
25560;BME280;13450;49.374;8.584;2022-08-25T11:11:12;100321.94;;;37.83;27.51
25560;BME280;13450;49.374;8.584;2022-08-25T11:13:49;100321.03;;;38.33;27.70
25560;BME280;13450;49.374;8.584;2022-08-25T11:16:33;100314.22;;;37.73;26.92
25560;BME280;13450;49.374;8.584;2022-08-25T11:21:52;100305.41;;;41.13;23.06
25560;BME280;13450;49.374;8.584;2022-08-25T11:27:24;100304.50;;;43.46;20.95
25560;BME280;13450;49.374;8.584;2022-08-25T11:29:59;100303.00;;;41.77;22.18
25560;BME280;13450;49.374;8.584;2022-08-25T11:32:30;100302.19;;;41.54;22.42
25560;BME280;13450;49.374;8.584;2022-08-25T11:35:01;100300.19;;;40.86;22.30
25560;BME280;13450;49.374;8.584;2022-08-25T11:37:29;100304.34;;;39.09;23.92
25560;BME280;13450;49.374;8.584;2022-08-25T11:43:20;100304.16;;;36.58;27.17
25560;BME280;13450;49.374;8.584;2022-08-25T11:53:32;100299.78;;;34.60;29.23
25560;BME280;13450;49.374;8.584;2022-08-25T11:56:09;100288.56;;;35.78;29.04
25560;BME280;13450;49.374;8.584;2022-08-25T11:58:48;100293.78;;;35.03;29.26
25560;BME280;13450;49.374;8.584;2022-08-25T12:14:53;100273.59;;;35.18;29.39
25560;BME280;13450;49.374;8.584;2022-08-25T12:17:22;100269.81;;;35.27;29.15
25560;BME280;13450;49.374;8.584;2022-08-25T12:19:51;100274.31;;;34.87;30.76
25560;BME280;13450;49.374;8.584;2022-08-25T12:25:21;100267.69;;;40.63;22.79
25560;BME280;13450;49.374;8.584;2022-08-25T12:28:08;100257.34;;;42.55;20.64
25560;BME280;13450;49.374;8.584;2022-08-25T12:33:30;100254.88;;;43.98;18.91
25560;BME280;13450;49.374;8.584;2022-08-25T12:36:03;100256.41;;;43.29;19.54
25560;BME280;13450;49.374;8.584;2022-08-25T12:38:38;100247.19;;;42.72;19.99
25560;BME280;13450;49.374;8.584;2022-08-25T12:41:09;100248.88;;;40.74;23.72
25560;BME280;13450;49.374;8.584;2022-08-25T12:43:38;100241.28;;;38.36;24.21
25560;BME280;13450;49.374;8.584;2022-08-25T12:49:09;100244.09;;;40.86;21.21
25560;BME280;13450;49.374;8.584;2022-08-25T12:57:00;100237.81;;;43.39;18.42
25560;BME280;13450;49.374;8.584;2022-08-25T12:59:49;100240.34;;;45.57;17.00
25560;BME280;13450;49.374;8.584;2022-08-25T13:02:43;100238.25;;;44.66;17.46
25560;BME280;13450;49.374;8.584;2022-08-25T13:13:22;100227.53;;;43.98;18.19
25560;BME280;13450;49.374;8.584;2022-08-25T13:16:01;100219.22;;;41.61;19.79
25560;BME280;13450;49.374;8.584;2022-08-25T13:18:29;100218.69;;;38.93;22.37
25560;BME280;13450;49.374;8.584;2022-08-25T13:21:48;100216.47;;;41.17;21.30
25560;BME280;13450;49.374;8.584;2022-08-25T13:23:54;100204.03;;;40.52;20.77
25560;BME280;13450;49.374;8.584;2022-08-25T13:26:23;100210.41;;;39.53;22.05
25560;BME280;13450;49.374;8.584;2022-08-25T13:29:01;100206.25;;;40.07;21.59
25560;BME280;13450;49.374;8.584;2022-08-25T13:31:28;100200.97;;;39.20;22.57
25560;BME280;13450;49.374;8.584;2022-08-25T13:34:03;100195.91;;;37.54;25.06
25560;BME280;13450;49.374;8.584;2022-08-25T13:36:31;100192.50;;;36.44;25.68
25560;BME280;13450;49.374;8.584;2022-08-25T13:39:21;100192.13;;;37.97;24.58
25560;BME280;13450;49.374;8.584;2022-08-25T13:41:53;100187.78;;;39.91;22.01
25560;BME280;13450;49.374;8.584;2022-08-25T13:44:21;100193.97;;;41.46;20.34
25560;BME280;13450;49.374;8.584;2022-08-25T13:47:13;100186.22;;;42.69;19.17
25560;BME280;13450;49.374;8.584;2022-08-25T13:49:42;100184.69;;;43.06;18.66
25560;BME280;13450;49.374;8.584;2022-08-25T13:52:24;100185.66;;;45.47;16.77
25560;BME280;13450;49.374;8.584;2022-08-25T13:54:51;100177.63;;;45.66;16.08
25560;BME280;13450;49.374;8.584;2022-08-25T13:57:24;100177.97;;;46.26;15.77
25560;BME280;13450;49.374;8.584;2022-08-25T13:59:55;100169.59;;;45.00;16.47
25560;BME280;13450;49.374;8.584;2022-08-25T14:02:45;100168.47;;;45.42;16.56
25560;BME280;13450;49.374;8.584;2022-08-25T14:05:13;100167.97;;;44.00;17.50
25560;BME280;13450;49.374;8.584;2022-08-25T14:07:54;100169.25;;;44.23;17.14
25560;BME280;13450;49.374;8.584;2022-08-25T14:10:42;100163.09;;;44.04;17.45
25560;BME280;13450;49.374;8.584;2022-08-25T14:13:15;100160.50;;;45.57;16.29
25560;BME280;13450;49.374;8.584;2022-08-25T14:15:52;100154.66;;;46.05;16.72
25560;BME280;13450;49.374;8.584;2022-08-25T14:18:29;100152.38;;;46.33;16.21
25560;BME280;13450;49.374;8.584;2022-08-25T14:20:56;100141.91;;;45.96;16.01
25560;BME280;13450;49.374;8.584;2022-08-25T14:23:24;100143.56;;;45.57;16.17
25560;BME280;13450;49.374;8.584;2022-08-25T14:25:52;100146.25;;;44.52;16.85
25560;BME280;13450;49.374;8.584;2022-08-25T14:28:20;100145.81;;;41.66;19.14
25560;BME280;13450;49.374;8.584;2022-08-25T14:30:59;100151.03;;;39.18;21.18
25560;BME280;13450;49.374;8.584;2022-08-25T14:33:35;100138.94;;;38.16;22.92
25560;BME280;13450;49.374;8.584;2022-08-25T14:36:02;100141.44;;;37.06;23.94
25560;BME280;13450;49.374;8.584;2022-08-25T14:38:28;100137.53;;;36.41;24.40
25560;BME280;13450;49.374;8.584;2022-08-25T14:40:54;100136.50;;;36.25;25.58